createdAt,value
2022-08-05T00:02:27.678Z,15.70
2022-08-05T00:04:56.152Z,15.70
2022-08-05T00:07:58.645Z,15.60
2022-08-05T00:10:10.366Z,15.60
2022-08-05T00:12:56.178Z,15.50
2022-08-05T00:15:55.043Z,15.50
2022-08-05T00:18:21.514Z,15.50
2022-08-05T00:20:49.020Z,15.40
2022-08-05T00:23:15.927Z,15.40
2022-08-05T00:25:46.182Z,15.40
2022-08-05T00:28:13.598Z,15.30
2022-08-05T00:30:41.133Z,15.30
2022-08-05T00:33:15.617Z,15.20
2022-08-05T00:36:14.927Z,15.20
2022-08-05T00:38:44.335Z,15.20
2022-08-05T00:41:11.765Z,15.20
2022-08-05T00:43:46.547Z,15.10
2022-08-05T00:46:14.267Z,15.20
2022-08-05T00:48:51.288Z,15.10
2022-08-05T00:51:51.628Z,15.10
2022-08-05T00:54:05.876Z,15.00
2022-08-05T00:56:32.776Z,15.00
2022-08-05T00:59:00.207Z,14.90
2022-08-05T01:01:48.539Z,14.90
2022-08-05T01:04:15.842Z,14.90
2022-08-05T01:06:43.726Z,14.80
2022-08-05T01:09:14.847Z,14.80
2022-08-05T01:11:46.285Z,14.80
2022-08-05T01:14:27.726Z,14.80
2022-08-05T01:17:04.680Z,14.80
2022-08-05T01:20:01.764Z,14.80
2022-08-05T01:22:31.981Z,14.70
2022-08-05T01:25:13.522Z,14.70
2022-08-05T01:27:55.048Z,14.60
2022-08-05T01:30:34.290Z,14.60
2022-08-05T01:33:03.780Z,14.50
2022-08-05T01:35:51.620Z,14.50
2022-08-05T01:38:26.927Z,14.40
2022-08-05T01:40:57.617Z,14.40
2022-08-05T01:43:25.050Z,14.40
2022-08-05T01:45:56.241Z,14.30
2022-08-05T01:48:24.299Z,14.20
2022-08-05T01:50:52.443Z,14.20
2022-08-05T01:53:51.481Z,14.20
2022-08-05T01:56:09.465Z,14.20
2022-08-05T12:05:18.479Z,29.00
2022-08-05T12:08:03.609Z,28.90
2022-08-05T12:10:43.732Z,28.90
2022-08-05T12:13:18.919Z,29.10
2022-08-05T12:16:14.870Z,29.20
2022-08-05T12:18:52.697Z,29.30
2022-08-05T12:21:30.692Z,29.30
2022-08-05T12:24:07.085Z,29.40
2022-08-05T12:26:38.824Z,29.30
2022-08-05T12:29:09.344Z,29.20
2022-08-05T12:31:45.954Z,29.20
2022-08-05T12:34:21.300Z,29.30
2022-08-05T12:36:49.930Z,29.40
2022-08-05T12:39:17.826Z,29.40
2022-08-05T12:41:45.170Z,29.30
2022-08-05T12:44:21.614Z,29.20
2022-08-05T12:46:59.738Z,29.10
2022-08-05T12:50:03.594Z,29.10
2022-08-05T12:52:30.408Z,29.00
2022-08-05T12:55:15.903Z,29.00
2022-08-05T12:58:38.451Z,29.10
2022-08-05T13:02:03.286Z,29.20
2022-08-05T13:03:20.792Z,29.30
2022-08-05T13:05:50.131Z,29.30
2022-08-05T13:08:20.037Z,29.40
2022-08-05T13:10:50.639Z,29.40
2022-08-05T13:14:05.669Z,29.50
2022-08-05T13:16:16.789Z,29.50
2022-08-05T13:19:01.745Z,29.60
2022-08-05T13:21:38.114Z,29.60
2022-08-05T13:24:15.483Z,29.50
2022-08-05T13:27:02.338Z,29.30
2022-08-05T13:29:37.643Z,29.20
2022-08-05T13:32:05.477Z,29.20
2022-08-05T13:34:33.034Z,29.20
2022-08-05T13:37:00.576Z,29.30
2022-08-05T13:40:16.336Z,29.40
2022-08-05T13:42:15.256Z,29.50
2022-08-05T13:44:46.171Z,29.50
2022-08-05T13:47:34.583Z,29.50
2022-08-05T13:50:04.572Z,29.50
2022-08-05T13:52:35.464Z,29.30
2022-08-05T13:55:07.656Z,29.40
2022-08-05T13:57:51.392Z,29.40
2022-08-05T14:00:27.194Z,29.40
2022-08-05T14:02:56.054Z,29.40
2022-08-05T14:05:48.609Z,29.40
2022-08-05T14:08:20.161Z,29.30
2022-08-05T14:10:48.562Z,29.30
2022-08-05T14:13:15.848Z,29.40
2022-08-05T14:16:08.818Z,29.40
2022-08-05T14:18:30.416Z,29.50
2022-08-05T14:20:57.309Z,29.60
2022-08-05T14:23:28.810Z,29.60
2022-08-05T14:26:04.913Z,29.50
2022-08-05T14:28:33.347Z,29.30
2022-08-05T14:31:01.836Z,29.30
2022-08-05T14:33:32.479Z,29.30
2022-08-05T14:36:16.120Z,29.30
2022-08-05T14:38:48.252Z,29.40
2022-08-05T14:41:15.223Z,29.40
2022-08-05T14:43:59.324Z,29.30
2022-08-05T14:46:32.712Z,29.30
2022-08-05T14:49:07.434Z,29.20
2022-08-05T14:51:38.222Z,29.30
2022-08-05T14:54:26.413Z,29.30
2022-08-05T14:56:54.877Z,29.30
2022-08-05T14:59:22.202Z,29.30
2022-08-05T15:01:50.142Z,29.30
2022-08-05T15:04:20.427Z,29.30
2022-08-05T15:06:49.498Z,29.20
2022-08-05T15:09:52.749Z,29.20
2022-08-05T15:12:06.931Z,29.30
2022-08-05T15:14:42.160Z,29.40
2022-08-05T15:17:46.869Z,29.30
2022-08-05T15:20:04.769Z,29.10
2022-08-05T15:22:31.673Z,29.10
2022-08-05T15:24:59.347Z,29.00
2022-08-05T15:27:26.450Z,29.00
2022-08-05T15:29:59.372Z,29.00
2022-08-05T15:32:27.429Z,29.00
2022-08-05T15:34:56.935Z,28.90
2022-08-05T15:38:34.570Z,28.90
2022-08-05T15:41:01.990Z,28.90
2022-08-05T15:43:09.254Z,28.90
2022-08-05T15:45:45.652Z,28.80
2022-08-05T15:48:14.397Z,28.60
2022-08-05T15:50:43.740Z,28.60
2022-08-05T15:53:13.107Z,28.40
2022-08-05T15:56:02.419Z,28.40
2022-08-05T15:58:35.451Z,28.30
2022-08-05T16:01:17.169Z,28.30
2022-08-05T16:03:45.244Z,28.20
2022-08-05T16:06:16.150Z,28.20
2022-08-05T16:08:47.570Z,28.10
2022-08-05T16:11:14.419Z,28.00
2022-08-05T16:14:02.957Z,28.00
2022-08-05T16:16:30.029Z,27.90
2022-08-05T16:18:56.879Z,27.80
2022-08-05T16:21:58.856Z,27.80
2022-08-05T16:24:40.547Z,27.70
2022-08-05T16:27:02.314Z,27.50
